createdAt,value
2023-04-20T00:00:18.021Z,7.40
2023-04-20T00:02:45.320Z,7.30
2023-04-20T00:05:12.494Z,7.20
2023-04-20T00:07:41.553Z,7.40
2023-04-20T00:10:09.323Z,7.30
2023-04-20T00:12:36.102Z,7.20
2023-04-20T00:15:03.159Z,7.30
2023-04-20T00:17:29.865Z,7.30
2023-04-20T00:19:56.640Z,7.20
2023-04-20T00:22:23.489Z,7.20
2023-04-20T00:24:50.295Z,7.00
2023-04-20T00:27:16.947Z,7.10
2023-04-20T00:29:43.761Z,7.00
2023-04-20T00:32:10.438Z,6.90
2023-04-20T00:34:37.148Z,6.80
2023-04-20T00:37:03.787Z,6.80
2023-04-20T00:39:30.348Z,6.90
2023-04-20T00:42:05.885Z,6.90
2023-04-20T00:44:33.388Z,6.90
2023-04-20T00:47:03.331Z,6.80
2023-04-20T00:49:31.712Z,6.80
2023-04-20T00:51:59.324Z,6.90
2023-04-20T00:54:30.585Z,6.90
2023-04-20T00:56:58.031Z,6.80
2023-04-20T00:59:24.830Z,7.00
2023-04-20T01:01:51.472Z,6.90
2023-04-20T01:04:19.067Z,6.90
2023-04-20T01:06:46.218Z,6.80
2023-04-20T01:09:13.024Z,6.80
2023-04-20T01:11:39.788Z,6.60
2023-04-20T01:14:06.898Z,6.70
2023-04-20T01:16:49.097Z,6.80
2023-04-20T01:19:16.183Z,6.80
2023-04-20T01:21:42.952Z,6.90
2023-04-20T01:24:09.679Z,6.90
2023-04-20T01:26:36.255Z,6.90
2023-04-20T01:29:02.804Z,6.80
2023-04-20T01:31:29.908Z,6.80
2023-04-20T01:33:57.511Z,6.80
2023-04-20T01:36:24.092Z,6.70
2023-04-20T01:38:50.967Z,6.70
2023-04-20T01:41:17.610Z,6.80
2023-04-20T01:43:44.339Z,6.80
2023-04-20T01:46:10.989Z,6.80
2023-04-20T01:48:40.578Z,6.70
2023-04-20T01:51:08.621Z,6.60
2023-04-20T01:53:35.241Z,6.60
2023-04-20T01:56:01.842Z,6.60
2023-04-20T01:58:28.888Z,6.50
2023-04-20T02:00:55.575Z,6.40
2023-04-20T02:03:22.340Z,6.40
2023-04-20T02:05:49.235Z,6.50
2023-04-20T02:08:15.896Z,6.60
2023-04-20T02:10:42.546Z,6.70
2023-04-20T02:13:09.174Z,6.80
2023-04-20T02:15:36.361Z,6.80
2023-04-20T02:18:03.840Z,6.60
2023-04-20T02:20:30.658Z,6.70
2023-04-20T02:22:57.327Z,6.70
2023-04-20T02:25:24.155Z,6.50
2023-04-20T02:27:51.178Z,6.50
2023-04-20T02:30:17.941Z,6.60
2023-04-20T02:33:06.134Z,6.60
2023-04-20T02:35:32.752Z,6.60
2023-04-20T02:38:10.879Z,6.60
2023-04-20T02:40:40.911Z,6.80
2023-04-20T02:43:07.549Z,6.70
2023-04-20T02:45:34.116Z,6.60
2023-04-20T02:48:00.810Z,6.50
2023-04-20T02:50:27.482Z,6.50
2023-04-20T02:53:08.471Z,6.50
2023-04-20T02:55:35.105Z,6.60
2023-04-20T02:58:01.855Z,6.70
2023-04-20T03:00:28.458Z,6.80
2023-04-20T03:02:55.128Z,6.90
2023-04-20T03:05:21.941Z,6.90
2023-04-20T03:07:48.549Z,6.80
2023-04-20T03:10:15.210Z,6.80
2023-04-20T03:12:41.806Z,6.80
2023-04-20T03:15:09.113Z,6.70
2023-04-20T03:17:35.952Z,6.80
2023-04-20T03:20:02.895Z,6.80
2023-04-20T03:22:29.443Z,6.80
2023-04-20T03:24:56.340Z,6.80
2023-04-20T03:27:23.198Z,6.80
2023-04-20T03:29:50.533Z,6.80
2023-04-20T03:32:17.140Z,6.80
2023-04-20T03:34:43.749Z,6.80
2023-04-20T03:37:10.386Z,6.90
2023-04-20T03:39:40.627Z,6.90
2023-04-20T03:42:07.225Z,7.00
2023-04-20T03:44:33.839Z,6.90
2023-04-20T03:47:00.506Z,6.80
2023-04-20T03:49:29.600Z,6.90
2023-04-20T03:51:56.173Z,6.90
2023-04-20T03:54:22.746Z,6.80
2023-04-20T03:56:49.686Z,6.80
2023-04-20T03:59:16.468Z,6.70
2023-04-20T04:01:44.302Z,6.60
2023-04-20T04:04:17.940Z,6.50
2023-04-20T04:06:46.498Z,6.60
2023-04-20T04:09:13.234Z,6.70
2023-04-20T04:11:42.996Z,6.60
2023-04-20T04:14:10.482Z,6.60
2023-04-20T04:16:37.165Z,6.40
2023-04-20T04:19:12.652Z,6.60
2023-04-20T04:21:39.411Z,6.60
2023-04-20T04:24:07.620Z,6.40
2023-04-20T04:26:34.401Z,6.40
2023-04-20T04:29:02.349Z,6.30
2023-04-20T04:31:29.150Z,6.30
2023-04-20T04:33:56.320Z,6.40
2023-04-20T04:36:24.216Z,6.40
2023-04-20T04:38:51.280Z,6.40
2023-04-20T04:41:18.650Z,6.50
2023-04-20T04:43:45.638Z,6.50
2023-04-20T04:46:13.299Z,6.40
2023-04-20T04:48:42.085Z,6.30
2023-04-20T04:51:09.736Z,6.40
2023-04-20T04:53:36.895Z,6.30
2023-04-20T04:56:04.645Z,6.40
2023-04-20T04:58:36.517Z,6.50
2023-04-20T05:01:07.107Z,6.50
2023-04-20T05:03:33.979Z,6.40
2023-04-20T05:06:00.766Z,6.40
2023-04-20T05:08:27.409Z,6.40
2023-04-20T05:10:54.056Z,6.50
2023-04-20T05:13:20.709Z,6.60
2023-04-20T05:15:47.602Z,6.60
2023-04-20T05:18:14.375Z,6.60
2023-04-20T05:20:41.018Z,6.60
2023-04-20T05:23:07.750Z,6.50
2023-04-20T05:25:34.745Z,6.50
2023-04-20T05:28:01.425Z,6.40
2023-04-20T05:30:28.098Z,6.50
2023-04-20T05:32:55.118Z,6.50
2023-04-20T05:35:22.318Z,6.60
2023-04-20T05:37:49.310Z,6.60
2023-04-20T05:40:16.100Z,6.50
2023-04-20T05:42:42.964Z,6.60
2023-04-20T05:45:10.501Z,6.50
2023-04-20T05:47:37.250Z,6.60
2023-04-20T05:50:04.774Z,6.70
2023-04-20T05:52:31.724Z,6.70
2023-04-20T05:55:00.801Z,6.60
2023-04-20T05:57:27.495Z,6.70
2023-04-20T05:59:55.929Z,6.80
2023-04-20T06:02:22.912Z,6.70
2023-04-20T06:04:49.879Z,6.80
2023-04-20T06:07:16.684Z,6.80
2023-04-20T06:09:43.547Z,6.80
2023-04-20T06:12:10.456Z,6.90
2023-04-20T06:14:37.299Z,6.80
2023-04-20T06:17:03.897Z,6.80
2023-04-20T06:19:30.578Z,6.80
2023-04-20T06:22:00.179Z,6.90
2023-04-20T06:24:27.954Z,7.00
2023-04-20T06:26:54.810Z,7.00
2023-04-20T06:29:21.538Z,7.00
2023-04-20T06:31:48.800Z,7.10
2023-04-20T06:34:16.191Z,6.90
2023-04-20T06:36:43.701Z,6.80
2023-04-20T06:39:13.204Z,6.90
2023-04-20T06:41:39.923Z,6.90
2023-04-20T06:44:06.801Z,6.90
2023-04-20T06:46:33.556Z,7.00
2023-04-20T06:49:00.299Z,7.00
2023-04-20T06:51:28.295Z,7.00
2023-04-20T06:53:55.727Z,6.90
2023-04-20T06:56:22.423Z,6.90
2023-04-20T06:58:49.082Z,6.90
2023-04-20T07:01:15.974Z,7.10
2023-04-20T07:03:43.522Z,7.00
2023-04-20T07:06:11.272Z,6.90
2023-04-20T07:08:39.614Z,6.80
2023-04-20T07:11:06.235Z,6.90
2023-04-20T07:13:33.939Z,6.80
2023-04-20T07:16:00.877Z,6.90
2023-04-20T07:18:27.622Z,6.90
2023-04-20T07:20:54.327Z,6.90
2023-04-20T07:23:21.332Z,7.00
2023-04-20T07:25:48.127Z,7.10
2023-04-20T07:28:14.825Z,7.10
2023-04-20T07:30:41.501Z,7.20
2023-04-20T07:33:09.109Z,7.40
2023-04-20T07:35:35.860Z,7.50
2023-04-20T07:38:02.609Z,7.70
2023-04-20T07:40:29.246Z,7.70
2023-04-20T07:42:55.904Z,7.80
2023-04-20T07:45:24.047Z,8.20
2023-04-20T07:47:52.329Z,8.30
2023-04-20T07:50:19.065Z,8.50
2023-04-20T07:52:45.848Z,8.70
2023-04-20T07:55:14.201Z,8.70
2023-04-20T07:57:41.598Z,8.80
2023-04-20T08:00:09.938Z,9.10
2023-04-20T08:02:36.800Z,9.30
2023-04-20T08:05:04.139Z,9.40
2023-04-20T08:07:31.114Z,9.60
2023-04-20T08:09:57.812Z,9.80
2023-04-20T08:12:24.548Z,9.80
2023-04-20T08:14:51.896Z,9.60
2023-04-20T08:17:18.504Z,9.70
2023-04-20T08:19:46.113Z,9.80
2023-04-20T08:22:12.963Z,10.10
2023-04-20T08:24:39.631Z,10.10
2023-04-20T08:27:08.974Z,9.80
2023-04-20T08:29:36.603Z,9.70
2023-04-20T08:32:03.690Z,9.70
2023-04-20T08:34:30.439Z,9.70
2023-04-20T08:36:57.030Z,9.80
2023-04-20T08:39:24.309Z,10.30
2023-04-20T08:41:55.250Z,10.50
2023-04-20T08:44:22.215Z,10.00
2023-04-20T08:46:50.084Z,10.00
2023-04-20T08:49:18.218Z,10.20
2023-04-20T08:51:45.977Z,10.30
2023-04-20T08:54:13.145Z,9.80
2023-04-20T08:56:41.567Z,10.10
2023-04-20T08:59:12.788Z,10.60
2023-04-20T09:01:41.671Z,9.80
2023-04-20T09:04:20.082Z,9.50
2023-04-20T09:06:51.770Z,9.60
2023-04-20T09:09:19.988Z,10.30
2023-04-20T09:11:47.308Z,9.70
2023-04-20T09:14:16.960Z,9.60
2023-04-20T09:16:54.299Z,10.40
2023-04-20T09:19:28.680Z,11.00
2023-04-20T09:21:57.984Z,11.40
2023-04-20T09:24:32.063Z,11.50
2023-04-20T09:26:59.260Z,11.70
2023-04-20T09:29:25.984Z,11.80
2023-04-20T09:31:52.897Z,11.10
2023-04-20T09:34:20.574Z,10.60
2023-04-20T09:36:51.644Z,10.90
2023-04-20T09:39:20.563Z,11.10
2023-04-20T09:41:52.162Z,11.00
2023-04-20T09:44:19.828Z,10.90
2023-04-20T09:46:46.893Z,11.00
2023-04-20T09:49:15.135Z,10.70
2023-04-20T09:51:47.579Z,11.10
2023-04-20T09:54:15.693Z,11.80
2023-04-20T09:56:43.018Z,11.90
2023-04-20T09:59:11.755Z,11.90
2023-04-20T10:01:38.729Z,12.00
2023-04-20T10:04:14.352Z,11.80
2023-04-20T10:06:57.033Z,11.80
2023-04-20T10:09:26.091Z,11.90
2023-04-20T10:11:55.073Z,11.80
2023-04-20T10:14:26.483Z,12.00
2023-04-20T10:17:05.189Z,12.30
2023-04-20T10:19:41.911Z,12.30
2023-04-20T10:22:10.743Z,12.60
2023-04-20T10:24:38.277Z,12.50
2023-04-20T10:27:19.463Z,12.20
2023-04-20T10:29:46.721Z,11.70
2023-04-20T10:32:27.745Z,11.40
2023-04-20T10:35:08.555Z,11.30
2023-04-20T10:37:35.971Z,11.20
2023-04-20T10:40:06.785Z,11.20
2023-04-20T10:42:46.486Z,11.10
2023-04-20T10:45:13.539Z,11.20
2023-04-20T10:47:45.243Z,11.80
2023-04-20T10:50:16.163Z,12.00
2023-04-20T10:52:44.247Z,12.10
2023-04-20T10:55:24.901Z,12.10
2023-04-20T10:57:52.553Z,12.10
2023-04-20T11:00:27.343Z,12.40
2023-04-20T11:02:56.678Z,12.20
2023-04-20T11:05:27.020Z,12.30
2023-04-20T11:07:55.262Z,12.30
2023-04-20T11:10:42.060Z,12.30
2023-04-20T11:13:29.206Z,12.40
2023-04-20T11:15:56.091Z,12.40
2023-04-20T11:18:22.782Z,12.50
2023-04-20T11:20:54.897Z,12.80
2023-04-20T11:23:23.329Z,12.80
2023-04-20T11:25:57.236Z,12.80
2023-04-20T11:28:25.842Z,12.90
2023-04-20T11:30:52.752Z,12.90
2023-04-20T11:33:30.989Z,12.90
2023-04-20T11:35:58.743Z,13.10
2023-04-20T11:38:33.341Z,13.20
2023-04-20T11:41:04.580Z,13.60
2023-04-20T11:43:32.499Z,14.00
2023-04-20T11:46:02.992Z,14.20
2023-04-20T11:48:33.105Z,14.40
2023-04-20T11:50:59.990Z,14.30
2023-04-20T11:53:26.752Z,14.20
2023-04-20T11:55:53.534Z,14.10
2023-04-20T11:58:20.228Z,14.30
2023-04-20T12:00:46.958Z,14.40
2023-04-20T12:03:13.833Z,14.50
2023-04-20T12:05:40.756Z,14.50
2023-04-20T12:08:08.224Z,14.60
2023-04-20T12:10:35.033Z,14.50
2023-04-20T12:13:01.895Z,15.00
2023-04-20T12:15:28.578Z,15.20
2023-04-20T12:17:55.646Z,15.40
2023-04-20T12:20:22.583Z,15.00
2023-04-20T12:22:49.450Z,14.50
2023-04-20T12:25:16.287Z,14.00
2023-04-20T12:27:43.038Z,13.80
2023-04-20T12:30:13.152Z,14.00
2023-04-20T12:32:39.917Z,14.10
2023-04-20T12:35:08.399Z,14.20
2023-04-20T12:37:35.666Z,14.10
2023-04-20T12:40:02.750Z,14.10
2023-04-20T12:42:29.661Z,13.90
2023-04-20T12:44:56.533Z,13.50
2023-04-20T12:47:23.150Z,13.50
2023-04-20T12:49:49.957Z,13.80
2023-04-20T12:52:16.649Z,13.70
2023-04-20T12:54:44.098Z,13.90
2023-04-20T12:57:11.172Z,13.70
2023-04-20T12:59:37.761Z,13.80
2023-04-20T13:02:04.700Z,13.80
2023-04-20T13:04:31.549Z,13.70
2023-04-20T13:06:58.235Z,13.70
2023-04-20T13:09:26.857Z,13.80
2023-04-20T13:11:53.834Z,13.70
2023-04-20T13:14:20.870Z,13.60
2023-04-20T13:16:47.914Z,13.50
2023-04-20T13:19:14.627Z,13.40
2023-04-20T13:21:41.369Z,13.30
2023-04-20T13:24:08.153Z,13.30
2023-04-20T13:26:35.268Z,13.40
2023-04-20T13:29:02.038Z,13.30
2023-04-20T13:31:31.992Z,13.20
2023-04-20T13:33:58.786Z,13.00
2023-04-20T13:36:26.070Z,12.90
2023-04-20T13:38:53.414Z,12.80
2023-04-20T13:41:20.342Z,12.70
2023-04-20T13:43:46.956Z,12.70
2023-04-20T13:46:15.239Z,12.40
2023-04-20T13:48:44.770Z,12.30
2023-04-20T13:51:11.877Z,12.30
2023-04-20T13:53:39.851Z,12.40
2023-04-20T13:56:06.901Z,12.50
2023-04-20T13:58:33.483Z,12.50
2023-04-20T14:01:00.155Z,12.60
2023-04-20T14:03:27.266Z,12.60
2023-04-20T14:05:54.126Z,12.60
2023-04-20T14:08:23.204Z,12.40
2023-04-20T14:10:49.890Z,12.20
2023-04-20T14:13:16.575Z,12.10
2023-04-20T14:15:43.273Z,12.00
2023-04-20T14:18:10.526Z,12.10
2023-04-20T14:20:37.205Z,12.20
2023-04-20T14:23:03.830Z,12.20
2023-04-20T14:25:30.421Z,12.30
2023-04-20T14:27:57.236Z,12.30
2023-04-20T14:30:23.959Z,12.30
2023-04-20T14:32:58.875Z,12.40
2023-04-20T14:35:27.440Z,12.30
2023-04-20T14:37:54.388Z,12.20
2023-04-20T14:40:21.256Z,12.20
2023-04-20T14:42:47.888Z,12.20
2023-04-20T14:45:14.450Z,12.10
2023-04-20T14:47:41.201Z,12.10
2023-04-20T14:50:08.966Z,12.10
2023-04-20T14:52:35.808Z,12.10
2023-04-20T14:55:02.739Z,12.20
2023-04-20T14:57:29.716Z,12.10
2023-04-20T14:59:57.427Z,12.10
2023-04-20T15:02:24.551Z,12.00
2023-04-20T15:04:51.428Z,11.80
2023-04-20T15:07:18.564Z,11.70
2023-04-20T15:09:45.538Z,11.60
2023-04-20T15:12:12.194Z,11.60
2023-04-20T15:14:38.856Z,11.50
2023-04-20T15:17:05.589Z,11.50
2023-04-20T15:19:32.137Z,11.40
2023-04-20T15:22:01.536Z,11.30
2023-04-20T15:24:28.148Z,11.30
2023-04-20T15:26:54.862Z,11.40
2023-04-20T15:29:21.863Z,11.40
2023-04-20T15:31:49.582Z,11.40
2023-04-20T15:34:17.106Z,11.40
2023-04-20T15:36:44.168Z,11.30
2023-04-20T15:39:10.949Z,11.30
2023-04-20T15:41:37.573Z,11.20
2023-04-20T15:44:04.337Z,11.30
2023-04-20T15:46:31.155Z,11.30
2023-04-20T15:48:58.094Z,11.30
2023-04-20T15:51:24.979Z,11.20
2023-04-20T15:54:12.670Z,11.20
2023-04-20T15:56:39.591Z,11.30
2023-04-20T15:59:06.239Z,11.20
2023-04-20T16:01:33.723Z,11.10
2023-04-20T16:04:03.112Z,11.10
2023-04-20T16:06:29.767Z,11.00
2023-04-20T16:08:57.671Z,10.90
2023-04-20T16:11:24.509Z,11.00
2023-04-20T16:13:51.195Z,11.10
2023-04-20T16:16:18.073Z,11.10
2023-04-20T16:18:44.887Z,10.90
2023-04-20T16:21:11.584Z,10.90
2023-04-20T16:23:38.361Z,10.90
2023-04-20T16:26:05.045Z,10.90
2023-04-20T16:28:31.793Z,10.90
2023-04-20T16:30:59.022Z,10.80
2023-04-20T16:33:26.407Z,10.80
2023-04-20T16:35:53.147Z,10.80
2023-04-20T16:38:22.590Z,10.70
2023-04-20T16:40:49.335Z,10.70
2023-04-20T16:43:16.109Z,10.60
2023-04-20T16:45:43.854Z,10.60
2023-04-20T16:48:10.639Z,10.60
2023-04-20T16:50:40.159Z,10.60
2023-04-20T16:53:08.888Z,10.50
2023-04-20T16:55:35.783Z,10.50
2023-04-20T16:58:02.640Z,10.40
2023-04-20T17:00:30.710Z,10.30
2023-04-20T17:02:57.881Z,10.30
2023-04-20T17:05:24.949Z,10.20
2023-04-20T17:07:51.813Z,10.10
2023-04-20T17:10:18.804Z,10.10
2023-04-20T17:12:45.784Z,10.00
2023-04-20T17:15:12.523Z,9.90
2023-04-20T17:17:39.443Z,9.80
2023-04-20T17:20:07.262Z,9.80
2023-04-20T17:22:35.286Z,9.80
2023-04-20T17:25:05.789Z,9.80
2023-04-20T17:27:34.178Z,9.80
2023-04-20T17:30:03.814Z,9.70
2023-04-20T17:32:30.758Z,9.60
2023-04-20T17:34:58.524Z,9.60
2023-04-20T17:37:25.276Z,9.60
2023-04-20T17:39:51.986Z,9.60
2023-04-20T17:42:18.749Z,9.50
2023-04-20T17:44:45.482Z,9.50
2023-04-20T17:47:14.741Z,9.40
2023-04-20T17:49:41.641Z,9.40
2023-04-20T17:52:09.582Z,9.50
2023-04-20T17:54:36.205Z,9.40
2023-04-20T17:57:02.873Z,9.40
2023-04-20T17:59:31.316Z,9.40
2023-04-20T18:01:58.143Z,9.30
2023-04-20T18:04:25.656Z,9.30
2023-04-20T18:06:52.905Z,9.20
2023-04-20T18:09:19.655Z,9.10
2023-04-20T18:11:46.460Z,9.10
2023-04-20T18:14:13.263Z,9.20
2023-04-20T18:16:42.060Z,9.20
2023-04-20T18:19:11.431Z,9.10
2023-04-20T18:21:42.989Z,9.00
2023-04-20T18:24:10.789Z,9.00
2023-04-20T18:26:37.817Z,9.00
2023-04-20T18:29:09.745Z,8.90
2023-04-20T18:31:50.770Z,8.80
2023-04-20T18:34:27.657Z,8.80
2023-04-20T18:39:41.573Z,8.80
2023-04-20T18:42:18.006Z,8.70
2023-04-20T18:45:04.542Z,8.70
2023-04-20T18:47:34.754Z,8.70
2023-04-20T18:52:45.916Z,8.70
2023-04-20T18:55:32.739Z,8.70
2023-04-20T18:58:25.551Z,8.70
2023-04-20T19:00:52.407Z,8.70
2023-04-20T19:03:19.471Z,8.70
2023-04-20T19:05:46.491Z,8.70
2023-04-20T19:08:20.940Z,8.70
2023-04-20T19:10:47.658Z,8.70
2023-04-20T19:13:24.858Z,8.60
2023-04-20T19:16:03.847Z,8.60
2023-04-20T19:18:34.116Z,8.50
2023-04-20T19:21:03.304Z,8.50
2023-04-20T19:23:30.079Z,8.50
2023-04-20T19:25:57.059Z,8.30
2023-04-20T19:28:24.380Z,8.40
2023-04-20T19:30:51.352Z,8.30
2023-04-20T19:33:23.457Z,8.30
2023-04-20T19:36:16.276Z,8.40
2023-04-20T19:39:16.754Z,8.50
2023-04-20T19:41:43.600Z,8.30
2023-04-20T19:44:12.020Z,8.30
2023-04-20T19:46:40.408Z,8.30
2023-04-20T19:49:07.407Z,8.40
2023-04-20T19:51:33.982Z,8.40
2023-04-20T19:54:01.490Z,8.40
2023-04-20T19:56:28.226Z,8.40
2023-04-20T19:58:54.891Z,8.40
2023-04-20T20:01:21.555Z,8.40
2023-04-20T20:03:48.606Z,8.30
2023-04-20T20:06:15.686Z,8.40
2023-04-20T20:08:42.615Z,8.50
2023-04-20T20:11:09.514Z,8.40
2023-04-20T20:13:36.378Z,8.30
2023-04-20T20:16:04.151Z,8.20
2023-04-20T20:18:31.161Z,8.20
2023-04-20T20:20:57.770Z,8.20
2023-04-20T20:23:24.450Z,8.20
2023-04-20T20:25:51.317Z,8.20
2023-04-20T20:28:18.114Z,8.10
2023-04-20T20:30:45.343Z,8.10
2023-04-20T20:33:12.430Z,8.10
2023-04-20T20:35:39.736Z,8.10
2023-04-20T20:38:07.649Z,8.20
2023-04-20T20:40:35.017Z,8.10
2023-04-20T20:43:02.119Z,8.10
2023-04-20T20:45:28.931Z,8.20
2023-04-20T20:47:56.312Z,8.20
2023-04-20T20:50:23.412Z,8.20
2023-04-20T20:52:50.261Z,8.20
2023-04-20T20:55:17.090Z,8.20
2023-04-20T20:57:43.733Z,8.10
2023-04-20T21:00:11.774Z,8.20
2023-04-20T21:02:39.235Z,8.10
2023-04-20T21:05:06.969Z,8.20
2023-04-20T21:07:33.915Z,8.20
2023-04-20T21:10:00.652Z,8.20
2023-04-20T21:12:27.332Z,8.20
2023-04-20T21:14:54.226Z,8.20
2023-04-20T21:17:21.076Z,8.10
2023-04-20T21:19:47.807Z,8.10
2023-04-20T21:22:14.436Z,8.10
2023-04-20T21:24:41.175Z,8.10
2023-04-20T21:27:07.852Z,8.10
2023-04-20T21:29:34.636Z,8.10
2023-04-20T21:32:01.416Z,8.00
2023-04-20T21:34:28.308Z,8.10
2023-04-20T21:36:54.949Z,8.20
2023-04-20T21:39:21.571Z,8.20
2023-04-20T21:41:48.256Z,8.20
2023-04-20T21:44:14.915Z,8.10
2023-04-20T21:46:41.641Z,8.10
2023-04-20T21:49:08.237Z,8.00
2023-04-20T21:51:34.813Z,8.10
2023-04-20T21:54:01.496Z,8.10
2023-04-20T21:56:28.086Z,8.10
2023-04-20T21:58:54.611Z,8.10
2023-04-20T22:01:21.259Z,8.10
2023-04-20T22:03:47.908Z,8.10
2023-04-20T22:06:14.716Z,8.10
2023-04-20T22:08:41.930Z,8.00
2023-04-20T22:11:09.136Z,8.00
2023-04-20T22:13:36.950Z,8.00
2023-04-20T22:16:04.043Z,8.10
2023-04-20T22:18:30.919Z,8.10
2023-04-20T22:20:57.630Z,8.20
2023-04-20T22:23:24.329Z,8.20
2023-04-20T22:26:14.416Z,8.30
2023-04-20T22:28:41.345Z,8.20
2023-04-20T22:31:08.075Z,8.20
2023-04-20T22:33:34.714Z,8.20
2023-04-20T22:36:01.299Z,8.20
2023-04-20T22:38:28.140Z,8.20
2023-04-20T22:40:55.034Z,8.10
2023-04-20T22:43:21.781Z,8.20
2023-04-20T22:45:48.712Z,8.20
2023-04-20T22:48:15.287Z,8.20
2023-04-20T22:50:41.959Z,8.30
2023-04-20T22:53:08.554Z,8.30
2023-04-20T22:55:35.134Z,8.30
2023-04-20T22:58:03.348Z,8.30
2023-04-20T23:00:30.056Z,8.30
2023-04-20T23:03:18.843Z,8.20
2023-04-20T23:05:45.777Z,8.30
2023-04-20T23:08:13.590Z,8.20
2023-04-20T23:10:40.770Z,8.20
2023-04-20T23:13:08.151Z,8.10
2023-04-20T23:15:34.977Z,8.20
2023-04-20T23:18:01.627Z,8.10
2023-04-20T23:20:28.699Z,8.10
2023-04-20T23:22:55.476Z,8.20
2023-04-20T23:25:22.030Z,8.20
2023-04-20T23:27:49.757Z,8.10
2023-04-20T23:30:16.548Z,8.10
2023-04-20T23:32:44.577Z,8.10
2023-04-20T23:35:11.571Z,8.20
2023-04-20T23:37:38.155Z,8.20
2023-04-20T23:40:07.156Z,8.10
2023-04-20T23:42:37.205Z,8.10
2023-04-20T23:45:05.449Z,8.10
2023-04-20T23:47:32.388Z,8.20
2023-04-20T23:49:59.023Z,8.20
2023-04-20T23:52:25.699Z,8.20
2023-04-20T23:54:52.361Z,8.10
2023-04-20T23:57:18.949Z,8.20
2023-04-20T23:59:45.870Z,8.20
